createdAt,value
2023-02-22T00:02:11.165Z,71.03
2023-02-22T00:04:41.783Z,82.82
2023-02-22T00:07:09.118Z,76.18
2023-02-22T00:09:36.383Z,80.57
2023-02-22T00:12:03.791Z,74.18
2023-02-22T00:14:31.038Z,85.53
2023-02-22T00:16:59.984Z,89.80
2023-02-22T00:19:30.932Z,86.20
2023-02-22T00:21:58.449Z,83.63
2023-02-22T00:24:27.016Z,89.35
2023-02-22T00:26:55.914Z,83.50
2023-02-22T00:29:24.756Z,82.65
2023-02-22T00:31:52.316Z,86.43
2023-02-22T00:34:19.691Z,77.68
2023-02-22T00:36:50.872Z,85.13
2023-02-22T00:39:18.331Z,90.32
2023-02-22T00:41:45.858Z,74.05
2023-02-22T00:44:13.175Z,87.90
2023-02-22T00:46:40.507Z,86.55
2023-02-22T00:49:07.927Z,93.55
2023-02-22T00:51:35.317Z,94.22
2023-02-22T00:54:02.806Z,81.95
2023-02-22T00:56:30.332Z,106.13
2023-02-22T00:58:57.633Z,89.00
2023-02-22T01:01:25.006Z,82.15
2023-02-22T01:03:52.407Z,85.95
2023-02-22T01:06:20.569Z,78.53
2023-02-22T01:08:49.024Z,88.55
2023-02-22T01:11:18.404Z,84.87
2023-02-22T01:13:45.903Z,98.25
2023-02-22T01:16:13.317Z,83.03
2023-02-22T01:18:40.660Z,97.70
2023-02-22T01:21:08.618Z,88.60
2023-02-22T01:23:36.051Z,101.88
2023-02-22T01:26:06.175Z,90.35
2023-02-22T01:28:35.290Z,95.75
2023-02-22T01:31:03.428Z,102.68
2023-02-22T01:33:31.953Z,88.38
2023-02-22T01:36:00.246Z,85.18
2023-02-22T01:38:28.247Z,104.38
2023-02-22T01:40:55.693Z,103.72
2023-02-22T01:43:29.678Z,76.80
2023-02-22T01:46:00.836Z,102.70
2023-02-22T01:48:41.135Z,105.72
2023-02-22T01:51:19.680Z,95.10
2023-02-22T01:53:56.068Z,81.20
2023-02-22T01:56:26.663Z,92.97
2023-02-22T01:59:01.500Z,88.00
2023-02-22T02:01:30.112Z,90.40
2023-02-22T02:04:00.203Z,76.88
2023-02-22T02:06:31.468Z,75.00
2023-02-22T02:09:15.903Z,81.10
2023-02-22T02:11:44.253Z,67.30
2023-02-22T02:14:12.628Z,69.47
2023-02-22T02:16:44.988Z,61.40
2023-02-22T02:19:44.540Z,61.72
2023-02-22T02:22:21.177Z,76.03
2023-02-22T02:25:37.843Z,62.40
2023-02-22T02:28:42.973Z,73.55
2023-02-22T02:31:27.887Z,57.88
2023-02-22T02:33:58.087Z,67.70
2023-02-22T02:37:03.117Z,65.97
2023-02-22T02:39:53.006Z,63.35
2023-02-22T02:42:25.495Z,66.45
2023-02-22T02:45:05.089Z,64.40
2023-02-22T02:47:40.280Z,70.00
2023-02-22T02:50:23.339Z,70.35
2023-02-22T02:52:55.542Z,71.97
2023-02-22T02:55:25.052Z,76.18
2023-02-22T02:57:53.677Z,76.50
2023-02-22T03:00:26.537Z,76.43
2023-02-22T03:03:11.912Z,82.93
2023-02-22T03:05:39.446Z,64.68
2023-02-22T03:08:07.745Z,82.85
2023-02-22T03:11:01.758Z,69.60
2023-02-22T03:14:08.288Z,80.57
2023-02-22T03:16:50.412Z,63.17
2023-02-22T03:19:22.072Z,69.80
2023-02-22T03:22:14.079Z,64.22
2023-02-22T03:24:54.808Z,62.58
2023-02-22T03:27:29.546Z,66.35
2023-02-22T03:30:05.829Z,67.75
2023-02-22T03:32:39.893Z,62.67
2023-02-22T03:35:17.502Z,54.90
2023-02-22T03:37:48.040Z,62.75
2023-02-22T03:40:28.413Z,63.63
2023-02-22T03:43:03.784Z,62.50
2023-02-22T03:45:36.298Z,66.20
2023-02-22T03:48:20.651Z,59.40
2023-02-22T03:50:49.137Z,67.43
2023-02-22T03:53:19.134Z,54.75
2023-02-22T03:55:53.136Z,58.90
2023-02-22T03:58:24.399Z,50.63
2023-02-22T04:00:54.703Z,59.75
2023-02-22T04:03:23.661Z,64.47
2023-02-22T04:05:52.940Z,56.83
2023-02-22T04:08:20.709Z,58.03
2023-02-22T04:10:48.494Z,56.17
2023-02-22T04:13:18.556Z,58.95
2023-02-22T04:15:48.842Z,62.63
2023-02-22T04:18:16.710Z,57.17
2023-02-22T04:20:46.818Z,56.08
2023-02-22T04:23:22.708Z,48.10
2023-02-22T04:25:50.200Z,57.03
2023-02-22T04:28:18.882Z,58.83
2023-02-22T04:31:06.365Z,63.50
2023-02-22T04:33:34.065Z,60.53
2023-02-22T04:36:01.721Z,56.13
2023-02-22T04:38:32.494Z,64.57
2023-02-22T04:41:00.747Z,57.85
2023-02-22T04:43:29.660Z,59.00
2023-02-22T04:46:06.669Z,55.33
2023-02-22T04:48:34.007Z,56.20
2023-02-22T04:51:01.310Z,53.75
2023-02-22T04:53:30.925Z,51.08
2023-02-22T04:55:58.333Z,51.03
2023-02-22T04:58:25.626Z,51.10
2023-02-22T05:00:54.201Z,42.00
2023-02-22T05:03:21.557Z,45.58
2023-02-22T05:05:48.953Z,49.03
2023-02-22T05:08:16.277Z,48.50
2023-02-22T05:10:43.591Z,42.10
2023-02-22T05:13:10.822Z,49.42
2023-02-22T05:15:37.951Z,46.90
2023-02-22T05:18:05.494Z,48.22
2023-02-22T05:20:34.927Z,39.88
2023-02-22T05:23:03.072Z,42.85
2023-02-22T05:25:30.384Z,44.58
2023-02-22T05:28:00.535Z,42.33
2023-02-22T05:30:31.189Z,39.70
2023-02-22T05:32:59.421Z,38.92
2023-02-22T05:35:27.717Z,36.17
2023-02-22T05:37:55.855Z,41.65
2023-02-22T05:40:26.326Z,39.08
2023-02-22T05:42:54.521Z,38.67
2023-02-22T05:45:25.127Z,43.15
2023-02-22T05:47:56.117Z,37.78
2023-02-22T05:50:24.701Z,36.03
2023-02-22T05:52:53.417Z,41.95
2023-02-22T05:55:23.676Z,39.25
2023-02-22T05:57:52.463Z,36.70
2023-02-22T06:00:26.099Z,44.58
2023-02-22T06:03:04.996Z,46.67
2023-02-22T06:05:33.107Z,43.92
2023-02-22T06:08:02.742Z,41.15
2023-02-22T06:10:30.942Z,42.88
2023-02-22T06:12:59.076Z,43.70
2023-02-22T06:15:28.443Z,46.35
2023-02-22T06:17:56.972Z,51.55
2023-02-22T06:20:26.522Z,47.60
2023-02-22T06:22:55.909Z,48.38
2023-02-22T06:25:25.935Z,53.25
2023-02-22T06:27:53.379Z,52.50
2023-02-22T06:30:23.170Z,61.80
2023-02-22T06:32:51.013Z,61.13
2023-02-22T06:35:18.413Z,58.88
2023-02-22T06:37:45.927Z,53.08
2023-02-22T06:40:14.820Z,56.85
2023-02-22T06:42:42.145Z,51.95
2023-02-22T06:45:09.979Z,56.65
2023-02-22T06:47:41.500Z,58.92
2023-02-22T06:50:19.935Z,50.50
2023-02-22T06:52:48.102Z,53.70
2023-02-22T06:55:23.742Z,54.08
2023-02-22T06:57:51.813Z,53.42
2023-02-22T07:00:21.337Z,63.20
2023-02-22T07:02:48.976Z,68.22
2023-02-22T07:05:19.389Z,59.83
2023-02-22T07:07:48.590Z,68.68
2023-02-22T07:10:26.199Z,69.97
2023-02-22T07:12:54.014Z,65.10
2023-02-22T07:15:23.921Z,63.88
2023-02-22T07:20:40.325Z,67.65
2023-02-22T07:23:08.411Z,66.05
2023-02-22T07:25:35.813Z,69.55
2023-02-22T07:28:03.052Z,69.93
2023-02-22T07:30:34.825Z,63.25
2023-02-22T07:33:04.900Z,71.22
2023-02-22T07:35:43.844Z,68.22
2023-02-22T07:38:11.066Z,70.45
2023-02-22T07:40:40.283Z,68.10
2023-02-22T07:43:28.813Z,68.28
2023-02-22T07:45:59.044Z,65.97
2023-02-22T07:48:29.024Z,64.22
2023-02-22T07:50:56.964Z,62.85
2023-02-22T07:53:30.220Z,65.47
2023-02-22T07:55:58.552Z,66.32
2023-02-22T07:58:27.996Z,67.35
2023-02-22T08:00:56.453Z,68.75
2023-02-22T08:03:25.649Z,68.78
2023-02-22T08:05:55.772Z,70.47
2023-02-22T08:08:24.059Z,70.88
2023-02-22T08:10:52.418Z,70.70
2023-02-22T08:13:22.181Z,64.40
2023-02-22T08:15:52.474Z,64.77
2023-02-22T08:18:20.989Z,65.97
2023-02-22T08:20:50.018Z,65.30
2023-02-22T08:23:18.482Z,54.83
2023-02-22T08:25:45.860Z,55.72
2023-02-22T08:28:15.993Z,57.20
2023-02-22T08:30:43.975Z,58.05
2023-02-22T08:33:14.653Z,63.22
2023-02-22T08:38:17.125Z,68.50
2023-02-22T08:40:44.883Z,75.32
2023-02-22T08:43:13.549Z,66.07
2023-02-22T08:45:41.475Z,73.30
2023-02-22T08:48:08.869Z,75.97
2023-02-22T08:50:36.361Z,72.20
2023-02-22T08:53:05.540Z,67.80
2023-02-22T08:55:37.543Z,69.18
2023-02-22T08:58:09.322Z,75.90
2023-02-22T09:00:39.049Z,73.60
2023-02-22T09:03:09.464Z,77.78
2023-02-22T09:05:36.792Z,77.00
2023-02-22T09:08:04.744Z,75.38
2023-02-22T09:10:35.041Z,166.18
2023-02-22T09:13:03.965Z,73.50
2023-02-22T09:15:32.534Z,74.53
2023-02-22T09:18:00.178Z,75.57
2023-02-22T09:20:29.378Z,70.68
2023-02-22T09:22:57.537Z,79.13
2023-02-22T09:25:25.221Z,68.57
2023-02-22T09:27:53.894Z,69.38
2023-02-22T09:30:33.463Z,72.75
2023-02-22T09:33:07.184Z,68.78
2023-02-22T09:35:36.684Z,71.03
2023-02-22T09:38:06.963Z,65.15
2023-02-22T09:40:45.156Z,62.30
2023-02-22T09:43:37.824Z,60.03
2023-02-22T09:46:56.231Z,56.53
2023-02-22T09:49:32.098Z,57.70
2023-02-22T09:52:08.392Z,58.15
2023-02-22T09:54:45.722Z,56.75
2023-02-22T09:57:23.037Z,55.20
2023-02-22T10:00:29.394Z,55.58
2023-02-22T10:03:19.442Z,57.25
2023-02-22T10:06:03.362Z,56.80
2023-02-22T10:08:33.724Z,58.47
2023-02-22T10:11:31.873Z,50.70
2023-02-22T10:14:05.622Z,53.05
2023-02-22T10:16:35.241Z,58.70
2023-02-22T10:19:33.677Z,50.97
2023-02-22T10:22:19.784Z,51.58
2023-02-22T10:25:14.831Z,47.15
2023-02-22T10:27:55.691Z,48.38
2023-02-22T10:30:34.249Z,44.35
2023-02-22T10:33:20.492Z,46.55
2023-02-22T10:35:51.352Z,44.63
2023-02-22T10:38:27.960Z,46.88
2023-02-22T10:40:58.526Z,48.88
2023-02-22T10:43:26.010Z,47.45
2023-02-22T10:45:57.864Z,50.08
2023-02-22T10:48:27.694Z,46.78
2023-02-22T10:51:02.205Z,44.83
2023-02-22T10:53:31.126Z,46.53
2023-02-22T10:56:05.765Z,48.30
2023-02-22T10:59:02.600Z,48.10
2023-02-22T11:01:33.059Z,49.95
2023-02-22T11:04:11.192Z,50.67
2023-02-22T11:06:41.176Z,52.38
2023-02-22T11:09:22.847Z,51.90
2023-02-22T11:12:07.793Z,51.53
2023-02-22T11:14:35.164Z,58.67
2023-02-22T11:17:08.307Z,60.72
2023-02-22T11:19:38.634Z,57.40
2023-02-22T11:22:05.980Z,51.30
2023-02-22T11:24:48.535Z,58.53
2023-02-22T11:27:27.104Z,54.60
2023-02-22T11:30:07.013Z,51.28
2023-02-22T11:32:43.488Z,51.75
2023-02-22T11:35:35.494Z,54.60
2023-02-22T11:38:23.074Z,61.72
2023-02-22T11:41:16.375Z,51.95
2023-02-22T11:43:47.447Z,57.55
2023-02-22T11:46:29.266Z,51.45
2023-02-22T11:49:12.039Z,52.92
2023-02-22T11:51:54.990Z,57.42
2023-02-22T11:54:31.588Z,54.28
2023-02-22T11:57:11.138Z,52.63
2023-02-22T11:59:41.832Z,56.85
2023-02-22T12:05:29.764Z,55.05
2023-02-22T12:08:19.200Z,57.85
2023-02-22T12:11:06.465Z,63.65
2023-02-22T12:13:58.947Z,58.70
2023-02-22T12:16:32.507Z,54.05
2023-02-22T12:19:22.234Z,54.67
2023-02-22T12:21:58.219Z,56.90
2023-02-22T12:24:34.628Z,56.50
2023-02-22T12:27:12.173Z,57.47
2023-02-22T12:29:44.721Z,67.95
2023-02-22T12:32:21.147Z,63.17
2023-02-22T12:35:14.361Z,61.10
2023-02-22T12:38:01.912Z,58.15
2023-02-22T12:41:01.581Z,56.72
2023-02-22T12:43:51.959Z,57.33
2023-02-22T12:46:53.469Z,62.35
2023-02-22T12:49:42.558Z,60.25
2023-02-22T12:52:32.082Z,56.00
2023-02-22T12:55:07.295Z,58.80
2023-02-22T12:58:07.850Z,58.85
2023-02-22T13:00:54.137Z,68.13
2023-02-22T13:03:36.288Z,65.13
2023-02-22T13:06:40.765Z,67.03
2023-02-22T13:09:14.340Z,63.47
2023-02-22T13:12:14.003Z,66.28
2023-02-22T13:14:56.826Z,63.40
2023-02-22T13:17:46.099Z,63.97
2023-02-22T13:20:41.314Z,66.25
2023-02-22T13:23:17.484Z,68.05
2023-02-22T13:26:19.716Z,70.85
2023-02-22T13:29:10.089Z,66.25
2023-02-22T13:31:49.860Z,75.15
2023-02-22T13:34:33.406Z,68.83
2023-02-22T13:37:25.554Z,68.90
2023-02-22T13:40:14.653Z,67.50
2023-02-22T13:43:06.514Z,66.93
2023-02-22T13:45:55.253Z,65.53
2023-02-22T13:48:41.807Z,77.38
2023-02-22T13:51:23.601Z,76.43
2023-02-22T13:54:07.992Z,74.97
2023-02-22T13:56:35.453Z,80.10
2023-02-22T13:59:04.829Z,76.40
2023-02-22T14:01:45.866Z,75.55
2023-02-22T14:04:40.603Z,71.25
2023-02-22T14:07:24.103Z,71.90
2023-02-22T14:09:52.666Z,72.30
2023-02-22T14:12:29.305Z,75.18
2023-02-22T14:15:28.656Z,71.72
2023-02-22T14:17:57.460Z,66.03
2023-02-22T14:20:32.632Z,72.30
2023-02-22T14:23:49.420Z,67.13
2023-02-22T14:26:32.310Z,68.53
2023-02-22T14:29:02.934Z,79.30
2023-02-22T14:32:13.183Z,75.18
2023-02-22T14:34:45.385Z,70.35
2023-02-22T14:37:12.747Z,75.85
2023-02-22T14:39:45.957Z,67.18
2023-02-22T14:42:23.252Z,65.38
2023-02-22T14:45:17.287Z,62.40
2023-02-22T14:48:13.850Z,70.68
2023-02-22T14:50:41.256Z,73.15
2023-02-22T14:53:11.565Z,65.03
2023-02-22T14:55:53.443Z,66.63
2023-02-22T14:58:25.919Z,73.45
2023-02-22T15:00:56.805Z,69.63
2023-02-22T15:03:38.782Z,65.90
2023-02-22T15:06:15.259Z,66.18
2023-02-22T15:08:48.957Z,73.95
2023-02-22T15:11:21.463Z,67.05
2023-02-22T15:13:55.045Z,72.28
2023-02-22T15:16:25.219Z,74.30
2023-02-22T15:18:54.875Z,69.07
2023-02-22T15:21:26.178Z,67.43
2023-02-22T15:24:03.353Z,69.20
2023-02-22T15:26:49.067Z,70.47
2023-02-22T15:29:26.074Z,72.60
2023-02-22T15:31:56.479Z,65.53
2023-02-22T15:34:33.203Z,69.93
2023-02-22T15:37:20.251Z,69.25
2023-02-22T15:39:47.639Z,59.22
2023-02-22T15:42:21.748Z,62.10
2023-02-22T15:44:54.857Z,59.30
2023-02-22T15:47:29.545Z,58.22
2023-02-22T15:50:33.337Z,64.60
2023-02-22T15:53:05.050Z,57.15
2023-02-22T15:55:36.805Z,55.67
2023-02-22T15:58:12.526Z,58.08
2023-02-22T16:00:43.121Z,56.28
2023-02-22T16:03:16.948Z,56.22
2023-02-22T16:05:48.041Z,56.35
2023-02-22T16:08:26.838Z,55.75
2023-02-22T16:11:15.146Z,59.30
2023-02-22T16:14:42.752Z,58.55
2023-02-22T16:17:28.977Z,59.88
2023-02-22T16:20:00.906Z,74.65
2023-02-22T16:22:34.906Z,63.55
2023-02-22T16:25:21.671Z,74.82
2023-02-22T16:27:50.842Z,66.20
2023-02-22T16:30:24.420Z,75.13
2023-02-22T16:32:55.041Z,67.32
2023-02-22T16:35:29.504Z,69.63
2023-02-22T16:38:02.892Z,76.57
2023-02-22T16:40:44.913Z,64.57
2023-02-22T16:43:15.127Z,71.03
2023-02-22T16:45:43.026Z,66.25
2023-02-22T16:48:24.027Z,68.90
2023-02-22T16:50:54.953Z,72.38
2023-02-22T16:53:25.227Z,66.93
2023-02-22T16:55:58.023Z,64.90
2023-02-22T16:58:28.164Z,63.55
2023-02-22T17:00:57.759Z,72.93
2023-02-22T17:03:26.135Z,71.85
2023-02-22T17:05:53.888Z,68.70
2023-02-22T17:08:21.389Z,67.72
2023-02-22T17:10:51.637Z,66.65
2023-02-22T17:13:25.718Z,62.72
2023-02-22T17:15:59.337Z,69.45
2023-02-22T17:18:34.727Z,69.40
2023-02-22T17:21:03.642Z,71.00
2023-02-22T17:23:31.083Z,65.78
2023-02-22T17:26:02.292Z,66.57
2023-02-22T17:28:30.715Z,66.65
2023-02-22T17:31:01.457Z,65.95
2023-02-22T17:33:32.968Z,60.28
2023-02-22T17:36:02.080Z,62.42
2023-02-22T17:38:30.564Z,61.95
2023-02-22T17:40:59.449Z,62.33
2023-02-22T17:43:30.691Z,62.55
2023-02-22T17:45:58.019Z,63.85
2023-02-22T17:48:26.048Z,56.13
2023-02-22T17:50:53.852Z,60.78
2023-02-22T17:53:21.819Z,56.92
2023-02-22T17:55:49.902Z,61.78
2023-02-22T17:58:17.886Z,63.60
2023-02-22T18:00:49.450Z,58.47
2023-02-22T18:03:25.494Z,59.55
2023-02-22T18:05:57.836Z,62.40
2023-02-22T18:08:27.361Z,57.00
2023-02-22T18:10:56.796Z,59.10
2023-02-22T18:13:26.614Z,53.75
2023-02-22T18:16:03.435Z,54.43
2023-02-22T18:18:31.462Z,55.17
2023-02-22T18:21:01.855Z,52.60
2023-02-22T18:23:31.282Z,54.40
2023-02-22T18:26:10.770Z,55.13
2023-02-22T18:28:39.703Z,46.97
2023-02-22T18:31:15.772Z,50.45
2023-02-22T18:33:44.979Z,60.45
2023-02-22T18:36:13.327Z,53.95
2023-02-22T18:38:45.130Z,54.90
2023-02-22T18:41:15.633Z,57.92
2023-02-22T18:43:43.666Z,51.47
2023-02-22T18:46:14.448Z,52.95
2023-02-22T18:48:42.329Z,51.45
2023-02-22T18:51:12.770Z,48.67
2023-02-22T18:53:41.396Z,51.10
2023-02-22T18:56:12.077Z,56.75
2023-02-22T19:01:07.820Z,51.10
2023-02-22T19:03:38.702Z,49.05
2023-02-22T19:06:11.464Z,51.03
2023-02-22T19:08:42.744Z,52.60
2023-02-22T19:11:17.735Z,48.17
2023-02-22T19:13:46.930Z,42.30
2023-02-22T19:16:20.310Z,49.80
2023-02-22T19:18:54.835Z,48.33
2023-02-22T19:21:22.876Z,52.75
2023-02-22T19:23:50.900Z,46.00
2023-02-22T19:26:24.250Z,50.10
2023-02-22T19:28:54.206Z,47.22
2023-02-22T19:31:31.822Z,46.70
2023-02-22T19:34:01.946Z,54.03
2023-02-22T19:36:30.214Z,49.08
2023-02-22T19:39:02.137Z,49.08
2023-02-22T19:41:30.122Z,45.58
2023-02-22T19:43:57.826Z,50.38
2023-02-22T19:46:26.438Z,52.03
2023-02-22T19:48:57.578Z,49.72
2023-02-22T19:51:35.061Z,46.65
2023-02-22T19:54:04.916Z,44.75
2023-02-22T19:56:35.240Z,51.10
2023-02-22T19:59:13.485Z,42.60
2023-02-22T20:01:44.318Z,45.67
2023-02-22T20:04:23.402Z,46.28
2023-02-22T20:06:54.810Z,47.63
2023-02-22T20:09:29.788Z,47.20
2023-02-22T20:11:57.704Z,49.63
2023-02-22T20:14:28.995Z,57.85
2023-02-22T20:16:58.132Z,54.90
2023-02-22T20:19:26.882Z,52.15
2023-02-22T20:21:56.307Z,56.28
2023-02-22T20:24:24.998Z,50.88
2023-02-22T20:26:55.997Z,60.10
2023-02-22T20:29:29.946Z,53.22
2023-02-22T20:31:59.455Z,56.40
2023-02-22T20:34:31.317Z,64.35
2023-02-22T20:36:59.301Z,65.20
2023-02-22T20:39:28.351Z,65.13
2023-02-22T20:41:56.285Z,70.72
2023-02-22T20:44:23.537Z,66.68
2023-02-22T20:46:51.137Z,59.72
2023-02-22T20:49:19.912Z,63.00
2023-02-22T20:51:48.377Z,62.95
2023-02-22T20:54:17.753Z,60.72
2023-02-22T20:56:53.137Z,56.00
2023-02-22T20:59:21.494Z,59.78
2023-02-22T21:01:51.395Z,59.10
2023-02-22T21:04:19.160Z,55.65
2023-02-22T21:06:47.256Z,59.72
2023-02-22T21:09:17.753Z,62.58
2023-02-22T21:11:46.484Z,65.13
2023-02-22T21:14:18.872Z,64.82
2023-02-22T21:16:49.274Z,56.97
2023-02-22T21:19:26.866Z,53.40
2023-02-22T21:22:01.631Z,55.42
2023-02-22T21:24:29.904Z,59.65
2023-02-22T21:26:59.046Z,59.25
2023-02-22T21:29:28.626Z,52.90
2023-02-22T21:31:57.069Z,59.85
2023-02-22T21:34:26.125Z,58.78
2023-02-22T21:36:54.501Z,67.15
2023-02-22T21:39:22.985Z,74.78
2023-02-22T21:41:52.137Z,69.32
2023-02-22T21:44:19.979Z,76.85
2023-02-22T21:46:50.690Z,79.45
2023-02-22T21:51:45.918Z,79.97
2023-02-22T21:54:13.883Z,85.25
2023-02-22T21:56:43.280Z,80.60
2023-02-22T21:59:19.048Z,88.40
2023-02-22T22:02:04.675Z,84.47
2023-02-22T22:04:32.857Z,78.70
2023-02-22T22:07:01.958Z,91.40
2023-02-22T22:09:33.363Z,83.35
2023-02-22T22:12:05.265Z,83.10
2023-02-22T22:14:34.557Z,82.85
2023-02-22T22:17:05.733Z,87.82
2023-02-22T22:19:40.643Z,85.93
2023-02-22T22:22:08.819Z,95.65
2023-02-22T22:24:36.757Z,88.65
2023-02-22T22:27:10.101Z,92.15
2023-02-22T22:29:37.448Z,100.13
2023-02-22T22:32:06.169Z,98.25
2023-02-22T22:34:34.554Z,95.15
2023-02-22T22:37:01.873Z,88.68
2023-02-22T22:39:29.715Z,96.30
2023-02-22T22:41:57.180Z,92.93
2023-02-22T22:44:24.605Z,90.60
2023-02-22T22:46:55.012Z,91.00
2023-02-22T22:49:25.386Z,85.38
2023-02-22T22:51:53.666Z,93.93
2023-02-22T22:54:21.013Z,95.90
2023-02-22T22:56:48.788Z,95.82
2023-02-22T22:59:16.216Z,100.45
2023-02-22T23:01:46.679Z,90.35
2023-02-22T23:04:16.658Z,91.70
2023-02-22T23:06:52.530Z,84.78
2023-02-22T23:09:22.248Z,87.05
2023-02-22T23:11:53.651Z,81.25
2023-02-22T23:14:26.862Z,84.65
2023-02-22T23:17:03.269Z,80.90
2023-02-22T23:19:35.846Z,71.20
2023-02-22T23:22:05.535Z,81.40
2023-02-22T23:24:37.858Z,81.20
2023-02-22T23:27:07.628Z,86.60
2023-02-22T23:29:41.909Z,91.65
2023-02-22T23:32:09.603Z,82.15
2023-02-22T23:34:41.403Z,88.60
2023-02-22T23:37:10.724Z,94.30
2023-02-22T23:39:38.770Z,89.18
2023-02-22T23:42:08.881Z,84.32
2023-02-22T23:44:36.564Z,81.97
2023-02-22T23:47:05.468Z,81.78
2023-02-22T23:49:38.157Z,79.00
2023-02-22T23:52:07.255Z,79.95
2023-02-22T23:54:40.292Z,80.75
2023-02-22T23:57:08.931Z,73.95
2023-02-22T23:59:40.497Z,75.85
